Time;durP1;ratioP1;P1;durP2;ratioP2;P2;SDS_P1;SDS_P2;PMS_P1;PMS_P2;Temp;Humidity;BMP_temperature;BMP_pressure;BME280_temperature;BME280_humidity;BME280_pressure;Samples;Min_cycle;Max_cycle;Signal;HPM_P1;HPM_P2
2022/03/15 00:00:20;;;;;;;14.57;4.55;;;;;;;;;;5053821;28;20048;-73
2022/03/15 00:02:48;;;;;;;13.27;4.38;;;;;;;;;;5058137;28;20025;-72
2022/03/15 00:05:15;;;;;;;16.27;5.45;;;;;;;;;;5070668;28;20032;-72
2022/03/15 00:07:42;;;;;;;19.25;5.28;;;;;;;;;;5070799;28;20017;-72
2022/03/15 00:10:08;;;;;;;17.23;5.20;;;;;;;;;;5070649;28;20050;-72
2022/03/15 00:12:35;;;;;;;13.65;4.75;;;;;;;;;;5070288;28;20375;-72
2022/03/15 00:15:01;;;;;;;14.18;4.88;;;;;;;;;;5070981;28;20435;-72
2022/03/15 00:17:32;;;;;;;14.73;5.18;;;;;;;;;;5070220;28;20028;-72
2022/03/15 00:19:59;;;;;;;13.85;4.68;;;;;;;;;;5070822;28;20036;-72
2022/03/15 00:22:25;;;;;;;15.48;4.75;;;;;;;;;;5070574;28;20024;-72
2022/03/15 00:24:52;;;;;;;16.98;4.90;;;;;;;;;;5070936;28;20016;-72
2022/03/15 00:27:20;;;;;;;14.38;4.70;;;;;;;;;;5070198;28;20028;-72
2022/03/15 00:29:47;;;;;;;13.77;5.28;;;;;;;;;;5071457;28;20374;-72
2022/03/15 00:32:17;;;;;;;15.90;5.13;;;;;;;;;;5057136;28;20413;-72
2022/03/15 00:34:43;;;;;;;14.23;5.50;;;;;;;;;;5056943;28;20402;-72
2022/03/15 00:37:10;;;;;;;16.33;5.10;;;;;;;;;;5070601;28;20044;-72
2022/03/15 00:39:36;;;;;;;16.42;4.97;;;;;;;;;;5070808;28;20029;-72
2022/03/15 00:42:03;;;;;;;17.08;5.00;;;;;;;;;;5070441;28;20033;-72
2022/03/15 00:44:29;;;;;;;17.63;5.53;;;;;;;;;;5071261;28;20025;-72
2022/03/15 00:46:56;;;;;;;15.50;5.20;;;;;;;;;;5073980;28;20043;-72
2022/03/15 00:49:23;;;;;;;17.85;5.38;;;;;;;;;;5073811;28;20039;-72
2022/03/15 00:51:51;;;;;;;14.13;5.45;;;;;;;;;;5074055;28;20515;-72
2022/03/15 00:54:17;;;;;;;14.93;5.25;;;;;;;;;;5073526;28;20031;-72
2022/03/15 00:56:44;;;;;;;11.93;4.80;;;;;;;;;;5074647;28;20024;-72
2022/03/15 00:59:11;;;;;;;17.75;5.63;;;;;;;;;;5073721;28;20021;-72
2022/03/15 01:01:38;;;;;;;14.50;5.72;;;;;;;;;;5073641;28;20024;-72
2022/03/15 01:04:05;;;;;;;15.45;5.53;;;;;;;;;;5073550;28;20020;-73
2022/03/15 01:06:31;;;;;;;15.13;4.95;;;;;;;;;;5073805;28;20496;-72
2022/03/15 01:08:58;;;;;;;16.17;5.15;;;;;;;;;;5073480;28;20032;-72
2022/03/15 01:11:24;;;;;;;13.35;4.50;;;;;;;;;;5073968;28;20459;-72
2022/03/15 01:13:51;;;;;;;15.25;5.20;;;;;;;;;;5073492;28;20024;-72
2022/03/15 01:16:17;;;;;;;14.20;5.57;;;;;;;;;;5073585;28;20025;-72
2022/03/15 01:18:44;;;;;;;14.00;5.20;;;;;;;;;;5073325;28;20033;-72
2022/03/15 01:21:14;;;;;;;14.65;5.18;;;;;;;;;;5073502;28;20024;-72
2022/03/15 01:23:43;;;;;;;16.48;5.50;;;;;;;;;;5073444;28;20404;-73
2022/03/15 01:26:09;;;;;;;12.20;4.90;;;;;;;;;;5073772;28;20023;-72
2022/03/15 01:28:36;;;;;;;13.77;5.22;;;;;;;;;;5073165;28;20035;-72
2022/03/15 01:31:02;;;;;;;15.70;4.80;;;;;;;;;;5073058;28;20021;-72
2022/03/15 01:33:29;;;;;;;15.93;5.57;;;;;;;;;;5073285;28;20409;-72
2022/03/15 01:35:55;;;;;;;19.98;5.65;;;;;;;;;;5073704;28;20396;-72
2022/03/15 01:38:21;;;;;;;17.55;5.28;;;;;;;;;;5072945;28;20052;-72
2022/03/15 01:40:48;;;;;;;12.98;5.40;;;;;;;;;;5059239;28;20028;-72
2022/03/15 01:43:14;;;;;;;15.13;5.05;;;;;;;;;;5072959;28;20401;-72
2022/03/15 01:45:41;;;;;;;15.85;5.20;;;;;;;;;;5073110;28;20400;-72
2022/03/15 01:48:09;;;;;;;21.17;5.57;;;;;;;;;;5072829;28;20463;-72
2022/03/15 01:50:36;;;;;;;15.13;5.07;;;;;;;;;;5071404;28;20028;-72
2022/03/15 01:53:03;;;;;;;22.27;5.47;;;;;;;;;;5072425;28;20024;-72
2022/03/15 01:55:30;;;;;;;13.88;4.97;;;;;;;;;;5072521;28;20396;-73
2022/03/15 01:57:57;;;;;;;14.02;5.00;;;;;;;;;;5067161;28;20036;-72
2022/03/15 02:00:23;;;;;;;12.70;4.63;;;;;;;;;;5056939;28;20098;-72
2022/03/15 02:02:50;;;;;;;22.52;4.57;;;;;;;;;;5073444;28;20020;-72
2022/03/15 02:05:16;;;;;;;9.23;3.90;;;;;;;;;;5072654;28;20362;-72
2022/03/15 02:07:42;;;;;;;16.13;5.07;;;;;;;;;;5072030;28;20025;-72
2022/03/15 02:10:10;;;;;;;19.10;4.55;;;;;;;;;;5072280;28;20027;-72
2022/03/15 02:12:38;;;;;;;13.05;4.82;;;;;;;;;;5072584;28;20017;-72
2022/03/15 02:15:06;;;;;;;14.82;4.75;;;;;;;;;;5072670;28;20024;-72
2022/03/15 02:17:32;;;;;;;10.50;3.90;;;;;;;;;;5072822;28;20040;-72
2022/03/15 02:19:59;;;;;;;15.23;4.78;;;;;;;;;;5072383;28;20036;-72
2022/03/15 02:22:26;;;;;;;16.50;4.53;;;;;;;;;;5071829;28;20024;-72
2022/03/15 02:24:53;;;;;;;12.27;4.35;;;;;;;;;;5072139;28;20384;-72
2022/03/15 02:27:23;;;;;;;18.73;4.55;;;;;;;;;;5072243;28;20025;-72
2022/03/15 02:29:51;;;;;;;14.68;4.88;;;;;;;;;;5072749;28;20397;-72
2022/03/15 02:32:18;;;;;;;13.27;4.53;;;;;;;;;;5071995;28;20024;-72
2022/03/15 02:34:44;;;;;;;16.25;5.00;;;;;;;;;;5071989;28;20035;-72
2022/03/15 02:37:11;;;;;;;20.50;5.07;;;;;;;;;;5071604;28;20024;-72
2022/03/15 02:39:37;;;;;;;18.55;5.00;;;;;;;;;;5072088;28;20099;-72
2022/03/15 02:42:04;;;;;;;12.27;4.60;;;;;;;;;;5072130;28;20034;-72
2022/03/15 02:44:30;;;;;;;9.10;4.20;;;;;;;;;;5072325;28;20504;-72
2022/03/15 02:46:57;;;;;;;15.07;5.05;;;;;;;;;;5071480;28;20062;-72
2022/03/15 02:49:23;;;;;;;16.58;4.40;;;;;;;;;;5071568;28;20485;-72
2022/03/15 02:51:50;;;;;;;17.65;5.20;;;;;;;;;;5071679;28;20020;-72
2022/03/15 02:54:16;;;;;;;13.90;3.95;;;;;;;;;;5071816;28;20032;-72
2022/03/15 02:56:43;;;;;;;13.90;4.90;;;;;;;;;;5072347;28;20020;-72
2022/03/15 02:59:15;;;;;;;18.08;4.40;;;;;;;;;;5071618;28;20501;-72
2022/03/15 03:01:42;;;;;;;13.88;4.05;;;;;;;;;;5071709;28;20493;-72
2022/03/15 03:04:10;;;;;;;17.08;5.05;;;;;;;;;;5071314;28;20523;-72
2022/03/15 03:06:37;;;;;;;13.55;4.45;;;;;;;;;;5071202;28;20027;-72
2022/03/15 03:09:04;;;;;;;15.32;4.55;;;;;;;;;;5071182;28;20431;-72
2022/03/15 03:11:31;;;;;;;15.25;4.70;;;;;;;;;;5072241;28;20031;-72
2022/03/15 03:13:58;;;;;;;13.68;4.15;;;;;;;;;;5071223;28;20028;-72
2022/03/15 03:16:26;;;;;;;10.48;4.22;;;;;;;;;;5071724;28;20025;-72
2022/03/15 03:18:58;;;;;;;14.68;4.47;;;;;;;;;;5071311;28;20412;-72
2022/03/15 03:21:28;;;;;;;11.45;3.90;;;;;;;;;;5055538;28;20008;-72
2022/03/15 03:23:56;;;;;;;17.30;4.97;;;;;;;;;;5068065;28;20029;-73
2022/03/15 03:26:23;;;;;;;13.88;4.00;;;;;;;;;;5071330;28;20650;-73
2022/03/15 03:28:50;;;;;;;14.32;4.25;;;;;;;;;;5071091;28;20038;-73
2022/03/15 03:31:17;;;;;;;19.55;4.30;;;;;;;;;;5071122;28;21899;-72
2022/03/15 03:33:43;;;;;;;17.65;4.13;;;;;;;;;;5070806;28;20535;-72
2022/03/15 03:36:10;;;;;;;14.85;4.60;;;;;;;;;;5071325;28;20024;-72
2022/03/15 03:38:37;;;;;;;12.20;4.05;;;;;;;;;;5071608;28;20040;-72
2022/03/15 03:41:05;;;;;;;13.73;4.75;;;;;;;;;;5071470;28;20020;-72
2022/03/15 03:43:31;;;;;;;13.13;4.45;;;;;;;;;;5057132;28;20024;-72
2022/03/15 03:45:58;;;;;;;12.63;4.05;;;;;;;;;;5071045;28;20012;-72
2022/03/15 03:48:25;;;;;;;11.13;4.13;;;;;;;;;;5070779;28;20025;-72
2022/03/15 03:50:52;;;;;;;14.82;3.47;;;;;;;;;;5067665;28;20036;-72
2022/03/15 03:53:21;;;;;;;12.57;4.47;;;;;;;;;;5071082;28;20020;-72
2022/03/15 03:55:47;;;;;;;10.18;4.25;;;;;;;;;;5070992;28;20024;-72
2022/03/15 03:58:14;;;;;;;14.20;4.15;;;;;;;;;;5056607;28;20028;-72
2022/03/15 04:00:40;;;;;;;15.48;3.63;;;;;;;;;;5071168;28;20023;-73
2022/03/15 04:03:07;;;;;;;15.23;4.30;;;;;;;;;;5070942;28;20028;-72
2022/03/15 04:05:36;;;;;;;15.95;4.47;;;;;;;;;;5071747;28;20025;-72
2022/03/15 04:08:03;;;;;;;13.02;4.47;;;;;;;;;;5070770;28;20035;-72
2022/03/15 04:10:30;;;;;;;9.85;3.67;;;;;;;;;;5070627;28;20032;-72
2022/03/15 04:12:57;;;;;;;11.38;3.72;;;;;;;;;;5070738;28;20073;-72
2022/03/15 04:15:24;;;;;;;19.63;4.75;;;;;;;;;;5054903;28;20030;-72
2022/03/15 04:17:51;;;;;;;13.57;4.45;;;;;;;;;;5071118;28;20033;-72
2022/03/15 04:20:17;;;;;;;14.85;4.13;;;;;;;;;;5072137;28;20081;-72
2022/03/15 04:22:44;;;;;;;14.70;4.53;;;;;;;;;;5074575;28;20036;-72
2022/03/15 04:25:11;;;;;;;11.73;3.75;;;;;;;;;;5059535;28;20021;-72
2022/03/15 04:27:38;;;;;;;17.50;4.65;;;;;;;;;;5074485;28;20384;-72
2022/03/15 04:30:05;;;;;;;12.00;3.88;;;;;;;;;;5074475;28;20046;-72
2022/03/15 04:32:32;;;;;;;15.35;4.60;;;;;;;;;;5074460;28;20493;-72
2022/03/15 04:34:59;;;;;;;12.95;4.10;;;;;;;;;;5074273;28;20031;-72
2022/03/15 04:37:25;;;;;;;13.50;4.22;;;;;;;;;;5074006;28;20043;-72
2022/03/15 04:39:53;;;;;;;13.85;4.07;;;;;;;;;;5056614;28;20020;-72
2022/03/15 04:42:19;;;;;;;11.88;3.47;;;;;;;;;;5074419;28;20031;-72
2022/03/15 04:44:46;;;;;;;14.50;4.15;;;;;;;;;;5074920;28;20073;-72
2022/03/15 04:47:13;;;;;;;12.40;4.32;;;;;;;;;;5073752;28;20412;-73
2022/03/15 04:49:39;;;;;;;15.10;4.05;;;;;;;;;;5074025;28;20039;-72
2022/03/15 04:52:06;;;;;;;13.98;4.00;;;;;;;;;;5073875;28;20021;-72
2022/03/15 04:54:32;;;;;;;12.07;3.78;;;;;;;;;;5056139;28;20025;-72
2022/03/15 04:56:59;;;;;;;12.32;3.78;;;;;;;;;;5060018;28;20031;-72
2022/03/15 04:59:25;;;;;;;15.10;3.50;;;;;;;;;;5074005;28;20032;-72
2022/03/15 05:01:51;;;;;;;13.90;4.03;;;;;;;;;;5073579;28;20025;-72
2022/03/15 05:04:18;;;;;;;10.75;4.00;;;;;;;;;;5073814;28;20489;-72
2022/03/15 05:06:44;;;;;;;14.18;4.45;;;;;;;;;;5073814;28;20497;-72
2022/03/15 05:09:10;;;;;;;14.88;4.25;;;;;;;;;;5073507;28;20094;-72
2022/03/15 05:11:38;;;;;;;11.95;3.55;;;;;;;;;;5074564;28;20028;-72
2022/03/15 05:14:05;;;;;;;12.98;3.65;;;;;;;;;;5073186;28;20055;-72
2022/03/15 05:16:31;;;;;;;8.98;3.42;;;;;;;;;;5073268;28;20019;-72
2022/03/15 05:18:57;;;;;;;7.60;3.58;;;;;;;;;;5073585;28;20034;-72
2022/03/15 05:21:28;;;;;;;12.07;3.17;;;;;;;;;;5073675;28;20009;-72
2022/03/15 05:23:54;;;;;;;12.90;3.53;;;;;;;;;;5073988;28;20028;-72
2022/03/15 05:26:22;;;;;;;17.10;3.88;;;;;;;;;;5073879;28;20033;-72
2022/03/15 05:28:49;;;;;;;11.02;3.38;;;;;;;;;;5073384;28;20035;-73
2022/03/15 05:31:20;;;;;;;9.80;3.53;;;;;;;;;;5072472;28;20023;-73
2022/03/15 05:33:47;;;;;;;9.75;3.33;;;;;;;;;;5073210;28;20443;-72
2022/03/15 05:36:13;;;;;;;9.82;3.28;;;;;;;;;;5073034;28;20025;-72
2022/03/15 05:38:40;;;;;;;11.52;3.50;;;;;;;;;;5073575;28;20036;-72
2022/03/15 05:41:07;;;;;;;11.50;3.58;;;;;;;;;;5073156;28;20061;-72
2022/03/15 05:43:34;;;;;;;9.25;3.58;;;;;;;;;;5072996;28;20024;-72
2022/03/15 05:46:00;;;;;;;11.80;3.90;;;;;;;;;;5072598;28;20030;-72
2022/03/15 05:48:27;;;;;;;12.68;4.20;;;;;;;;;;5072962;28;20409;-72
2022/03/15 05:50:53;;;;;;;11.70;3.35;;;;;;;;;;5073448;28;20405;-73
2022/03/15 05:53:20;;;;;;;7.35;3.22;;;;;;;;;;5059386;28;20028;-72
2022/03/15 05:55:46;;;;;;;12.20;3.65;;;;;;;;;;5072818;28;20069;-72
2022/03/15 05:58:14;;;;;;;12.68;3.33;;;;;;;;;;5072914;28;20562;-72
2022/03/15 06:00:42;;;;;;;13.65;4.07;;;;;;;;;;5072214;28;20021;-72
2022/03/15 06:03:10;;;;;;;10.00;3.85;;;;;;;;;;5072745;28;20432;-73
2022/03/15 06:05:37;;;;;;;15.20;3.25;;;;;;;;;;5071448;28;20032;-72
2022/03/15 06:08:03;;;;;;;11.32;3.05;;;;;;;;;;5072506;28;20051;-72
2022/03/15 06:10:30;;;;;;;11.70;2.92;;;;;;;;;;5072847;28;20025;-72
2022/03/15 06:12:57;;;;;;;13.05;3.40;;;;;;;;;;5072548;28;20027;-72
2022/03/15 06:15:24;;;;;;;10.00;2.97;;;;;;;;;;5056635;28;20017;-72
2022/03/15 06:17:52;;;;;;;9.13;3.40;;;;;;;;;;5073076;28;20012;-72
2022/03/15 06:20:19;;;;;;;11.25;3.50;;;;;;;;;;5072221;28;20029;-72
2022/03/15 06:22:47;;;;;;;17.80;3.90;;;;;;;;;;5071994;28;20515;-72
2022/03/15 06:25:13;;;;;;;16.42;4.00;;;;;;;;;;5072075;28;20013;-72
2022/03/15 06:27:40;;;;;;;13.57;3.63;;;;;;;;;;5071817;28;20485;-72
2022/03/15 06:30:07;;;;;;;9.32;3.53;;;;;;;;;;5072129;28;20028;-72
2022/03/15 06:32:33;;;;;;;9.27;3.10;;;;;;;;;;5072591;28;20038;-73
2022/03/15 06:35:01;;;;;;;13.05;3.58;;;;;;;;;;5071989;28;20392;-72
2022/03/15 06:37:28;;;;;;;16.33;3.35;;;;;;;;;;5070868;28;20032;-72
2022/03/15 06:39:55;;;;;;;13.23;3.00;;;;;;;;;;5070408;28;20493;-72
2022/03/15 06:42:22;;;;;;;16.15;3.35;;;;;;;;;;5070620;28;20031;-72
2022/03/15 06:44:49;;;;;;;14.25;3.67;;;;;;;;;;5072260;28;20029;-72
2022/03/15 06:47:15;;;;;;;11.70;3.33;;;;;;;;;;5070904;28;20519;-72
2022/03/15 06:49:42;;;;;;;7.93;3.40;;;;;;;;;;5071583;28;20036;-72
2022/03/15 06:52:09;;;;;;;8.55;2.90;;;;;;;;;;5070498;28;20035;-72
2022/03/15 06:54:35;;;;;;;10.65;3.25;;;;;;;;;;5070612;28;20020;-72
2022/03/15 06:57:02;;;;;;;13.93;3.47;;;;;;;;;;5071356;28;20021;-72
2022/03/15 06:59:28;;;;;;;8.60;3.13;;;;;;;;;;5071853;28;20036;-72
2022/03/15 07:01:55;;;;;;;7.88;3.13;;;;;;;;;;5071248;28;20093;-72
2022/03/15 07:04:21;;;;;;;22.80;3.08;;;;;;;;;;5070623;28;20027;-72
2022/03/15 07:06:48;;;;;;;9.65;2.67;;;;;;;;;;5072396;28;20028;-73
2022/03/15 07:09:14;;;;;;;11.10;3.20;;;;;;;;;;5070269;28;20025;-72
2022/03/15 07:11:40;;;;;;;8.52;3.45;;;;;;;;;;5070709;28;20016;-72
2022/03/15 07:14:07;;;;;;;11.85;3.13;;;;;;;;;;5070558;28;20031;-73
2022/03/15 07:16:34;;;;;;;10.50;3.10;;;;;;;;;;5070938;28;20016;-72
2022/03/15 07:19:00;;;;;;;10.77;3.40;;;;;;;;;;5070353;28;20025;-72
2022/03/15 07:21:27;;;;;;;15.90;3.30;;;;;;;;;;5070563;28;20027;-73
2022/03/15 07:23:53;;;;;;;11.30;3.47;;;;;;;;;;5071350;28;20431;-72
2022/03/15 07:26:19;;;;;;;8.43;3.10;;;;;;;;;;5072158;28;20385;-73
2022/03/15 07:28:46;;;;;;;10.68;3.25;;;;;;;;;;5074758;28;20036;-72
2022/03/15 07:31:12;;;;;;;8.18;3.28;;;;;;;;;;5070776;28;20020;-73
2022/03/15 07:33:39;;;;;;;9.90;3.50;;;;;;;;;;5070375;28;20035;-73
2022/03/15 07:36:05;;;;;;;6.13;3.00;;;;;;;;;;5069825;28;20021;-73
2022/03/15 07:38:32;;;;;;;8.45;2.75;;;;;;;;;;5069445;28;20509;-73
2022/03/15 07:41:01;;;;;;;13.10;3.15;;;;;;;;;;5066937;28;20101;-72
2022/03/15 07:43:30;;;;;;;7.03;2.88;;;;;;;;;;5069639;28;20005;-73
2022/03/15 07:45:57;;;;;;;6.28;2.92;;;;;;;;;;5067948;28;20035;-73
2022/03/15 07:48:23;;;;;;;9.02;3.28;;;;;;;;;;5065036;28;20032;-73
2022/03/15 07:50:52;;;;;;;12.68;3.10;;;;;;;;;;5070241;28;20028;-72
2022/03/15 07:53:19;;;;;;;8.52;3.03;;;;;;;;;;5068788;28;20089;-73
2022/03/15 07:55:45;;;;;;;10.35;2.58;;;;;;;;;;5073791;28;20366;-72
2022/03/15 07:58:11;;;;;;;5.78;2.47;;;;;;;;;;5073409;28;20020;-73
2022/03/15 08:00:38;;;;;;;8.77;2.90;;;;;;;;;;5074724;28;20032;-72
2022/03/15 08:03:05;;;;;;;5.95;2.83;;;;;;;;;;5074232;28;20447;-72
2022/03/15 08:05:31;;;;;;;9.85;3.15;;;;;;;;;;5074726;28;20024;-72
2022/03/15 08:07:57;;;;;;;13.18;3.38;;;;;;;;;;5073059;28;20459;-72
2022/03/15 08:10:24;;;;;;;10.65;3.00;;;;;;;;;;5074045;28;20024;-73
2022/03/15 08:12:51;;;;;;;6.28;2.70;;;;;;;;;;5074280;28;20046;-72
2022/03/15 08:15:17;;;;;;;12.18;2.95;;;;;;;;;;5073118;28;20035;-73
2022/03/15 08:17:44;;;;;;;9.15;3.28;;;;;;;;;;5081132;28;20016;-72
2022/03/15 08:20:18;;;;;;;9.48;3.00;;;;;;;;;;5075146;28;20024;-72
2022/03/15 08:22:45;;;;;;;7.18;3.20;;;;;;;;;;5072786;28;20025;-72
2022/03/15 08:25:11;;;;;;;9.63;3.03;;;;;;;;;;5071935;28;20039;-73
2022/03/15 08:27:37;;;;;;;12.63;3.78;;;;;;;;;;5073008;28;20027;-72
2022/03/15 08:30:05;;;;;;;12.98;3.80;;;;;;;;;;5073809;28;20047;-72
2022/03/15 08:32:31;;;;;;;11.38;3.45;;;;;;;;;;5073666;28;20019;-73
2022/03/15 08:34:57;;;;;;;10.55;3.63;;;;;;;;;;5073648;28;20040;-72
2022/03/15 08:37:24;;;;;;;13.48;3.60;;;;;;;;;;5072523;28;20040;-72
2022/03/15 08:39:50;;;;;;;10.55;3.45;;;;;;;;;;5073125;28;20016;-73
2022/03/15 08:42:17;;;;;;;10.52;3.20;;;;;;;;;;5073584;28;20025;-72
2022/03/15 08:44:43;;;;;;;8.05;3.28;;;;;;;;;;5074312;28;20486;-72
2022/03/15 08:47:10;;;;;;;8.02;3.03;;;;;;;;;;5073664;28;20020;-72
2022/03/15 08:49:38;;;;;;;10.50;3.38;;;;;;;;;;5058937;28;20032;-72
2022/03/15 08:52:07;;;;;;;12.32;3.55;;;;;;;;;;5073001;28;20016;-73
2022/03/15 08:54:34;;;;;;;6.82;3.08;;;;;;;;;;5072383;28;20029;-72
2022/03/15 08:57:01;;;;;;;12.02;3.40;;;;;;;;;;5072894;28;20485;-72
2022/03/15 08:59:27;;;;;;;9.70;3.20;;;;;;;;;;5073820;28;20024;-72
2022/03/15 09:01:54;;;;;;;9.48;2.92;;;;;;;;;;5073755;28;20017;-73
2022/03/15 09:04:20;;;;;;;13.30;4.03;;;;;;;;;;5073382;28;20020;-72
2022/03/15 09:06:47;;;;;;;10.32;3.70;;;;;;;;;;5072456;28;20020;-72
2022/03/15 09:09:18;;;;;;;9.02;3.45;;;;;;;;;;5072385;28;20038;-73
2022/03/15 09:11:46;;;;;;;13.05;3.45;;;;;;;;;;5073578;28;20405;-72
2022/03/15 09:14:13;;;;;;;9.93;2.25;;;;;;;;;;5073107;28;20043;-72
2022/03/15 09:16:39;;;;;;;13.00;3.33;;;;;;;;;;5073234;28;20029;-73
2022/03/15 09:19:06;;;;;;;13.82;3.30;;;;;;;;;;5073043;28;20021;-72
2022/03/15 09:21:33;;;;;;;8.70;3.15;;;;;;;;;;5072161;28;20021;-71
2022/03/15 09:23:59;;;;;;;9.10;3.30;;;;;;;;;;5071938;28;20495;-73
2022/03/15 09:26:26;;;;;;;8.40;3.28;;;;;;;;;;5072796;28;20036;-72
2022/03/15 09:28:53;;;;;;;10.77;3.33;;;;;;;;;;5071822;28;20525;-73
2022/03/15 09:31:22;;;;;;;8.27;3.50;;;;;;;;;;5072047;28;20033;-72
2022/03/15 09:33:49;;;;;;;10.15;3.50;;;;;;;;;;5072577;28;20021;-73
2022/03/15 09:36:16;;;;;;;8.30;3.35;;;;;;;;;;5055348;28;20411;-72
2022/03/15 09:38:46;;;;;;;12.73;3.30;;;;;;;;;;5072674;28;20044;-72
2022/03/15 09:41:14;;;;;;;9.65;3.20;;;;;;;;;;5072182;28;20017;-72
2022/03/15 09:43:45;;;;;;;13.73;3.88;;;;;;;;;;5072775;28;20013;-73
2022/03/15 09:46:12;;;;;;;9.20;3.08;;;;;;;;;;5071934;28;20035;-73
2022/03/15 09:48:40;;;;;;;10.18;3.42;;;;;;;;;;5072693;28;20043;-72
2022/03/15 09:51:07;;;;;;;10.18;3.10;;;;;;;;;;5072564;28;20040;-72
2022/03/15 09:53:34;;;;;;;10.77;3.92;;;;;;;;;;5073019;28;20021;-73
2022/03/15 09:56:01;;;;;;;13.90;4.03;;;;;;;;;;5072362;28;20034;-73
2022/03/15 09:58:27;;;;;;;9.38;3.65;;;;;;;;;;5072196;28;20024;-72
2022/03/15 10:00:54;;;;;;;12.60;3.33;;;;;;;;;;5083535;28;20016;-72
2022/03/15 10:03:21;;;;;;;6.43;3.10;;;;;;;;;;5086579;28;20025;-72
2022/03/15 10:05:49;;;;;;;14.77;4.40;;;;;;;;;;5072627;28;20363;-73
2022/03/15 10:08:17;;;;;;;11.75;3.70;;;;;;;;;;5070587;28;20044;-73
2022/03/15 10:10:44;;;;;;;12.63;4.03;;;;;;;;;;5072163;28;20043;-73
2022/03/15 10:13:10;;;;;;;14.27;3.40;;;;;;;;;;5072033;28;20489;-73
2022/03/15 10:15:37;;;;;;;12.40;3.53;;;;;;;;;;5054146;28;20032;-73
2022/03/15 10:18:06;;;;;;;14.93;4.28;;;;;;;;;;5071182;28;20508;-73
2022/03/15 10:20:41;;;;;;;12.05;3.50;;;;;;;;;;5072276;28;20511;-72
2022/03/15 10:23:11;;;;;;;11.43;4.05;;;;;;;;;;5071936;28;20024;-73
2022/03/15 10:25:38;;;;;;;18.38;3.95;;;;;;;;;;5071743;28;20023;-73
2022/03/15 10:28:06;;;;;;;11.15;3.58;;;;;;;;;;5071394;28;20028;-73
2022/03/15 10:30:34;;;;;;;12.18;3.63;;;;;;;;;;5071732;28;20046;-73
2022/03/15 10:33:00;;;;;;;11.63;3.83;;;;;;;;;;5071454;28;20031;-73
2022/03/15 10:35:28;;;;;;;12.55;3.58;;;;;;;;;;5071145;28;20035;-73
2022/03/15 10:37:55;;;;;;;16.92;4.15;;;;;;;;;;5071023;28;20043;-73
2022/03/15 10:40:41;;;;;;;18.38;4.45;;;;;;;;;;5071668;28;20493;-73
2022/03/15 10:43:11;;;;;;;10.38;3.90;;;;;;;;;;5071175;28;20021;-73
2022/03/15 10:45:38;;;;;;;15.63;3.92;;;;;;;;;;5052242;28;20058;-72
2022/03/15 10:48:26;;;;;;;19.75;4.88;;;;;;;;;;5055939;28;20378;-73
2022/03/15 10:51:09;;;;;;;14.05;4.13;;;;;;;;;;5067125;28;20051;-73
2022/03/15 10:53:36;;;;;;;13.32;3.65;;;;;;;;;;5071536;28;20051;-73
2022/03/15 10:56:15;;;;;;;15.35;3.97;;;;;;;;;;5070103;28;20515;-73
2022/03/15 10:59:02;;;;;;;12.57;3.83;;;;;;;;;;5070769;28;20019;-73
2022/03/15 11:01:29;;;;;;;16.17;4.05;;;;;;;;;;5064314;28;20030;-73
2022/03/15 11:04:03;;;;;;;12.18;3.67;;;;;;;;;;5070295;28;20020;-73
2022/03/15 11:06:32;;;;;;;12.32;3.85;;;;;;;;;;5055954;28;20523;-73
2022/03/15 11:09:00;;;;;;;13.45;4.47;;;;;;;;;;5071519;28;20493;-73
2022/03/15 11:11:27;;;;;;;18.63;4.20;;;;;;;;;;5057357;28;20025;-73
2022/03/15 11:14:06;;;;;;;17.95;4.82;;;;;;;;;;5070765;28;20029;-73
2022/03/15 11:16:36;;;;;;;15.52;3.70;;;;;;;;;;5070756;28;20050;-73
2022/03/15 11:19:04;;;;;;;16.77;4.80;;;;;;;;;;5070591;28;20035;-73
2022/03/15 11:21:33;;;;;;;17.33;4.75;;;;;;;;;;5070290;28;20089;-73
2022/03/15 11:24:00;;;;;;;20.70;4.68;;;;;;;;;;5070574;28;20031;-73
2022/03/15 11:26:30;;;;;;;17.13;4.32;;;;;;;;;;5071380;28;20396;-72
2022/03/15 11:28:57;;;;;;;20.20;4.88;;;;;;;;;;5069918;28;20034;-72
2022/03/15 11:31:24;;;;;;;10.13;3.80;;;;;;;;;;5070653;28;20029;-73
2022/03/15 11:33:52;;;;;;;17.58;5.50;;;;;;;;;;5070809;28;20017;-73
2022/03/15 11:36:19;;;;;;;13.90;5.00;;;;;;;;;;5070978;28;20023;-73
2022/03/15 11:38:46;;;;;;;10.25;4.53;;;;;;;;;;5071028;28;20081;-73
2022/03/15 11:41:15;;;;;;;17.35;4.93;;;;;;;;;;5070467;28;20497;-73
2022/03/15 11:43:50;;;;;;;12.60;4.47;;;;;;;;;;5070178;28;20012;-73
2022/03/15 11:46:27;;;;;;;21.25;5.20;;;;;;;;;;5070450;28;20033;-72
2022/03/15 11:48:55;;;;;;;21.30;5.30;;;;;;;;;;5070459;28;20489;-73
2022/03/15 11:51:32;;;;;;;16.48;5.18;;;;;;;;;;5070016;28;20025;-73
2022/03/15 11:54:04;;;;;;;13.98;5.00;;;;;;;;;;5067582;28;20024;-73
2022/03/15 11:56:44;;;;;;;20.17;5.32;;;;;;;;;;5070914;28;20031;-72
2022/03/15 11:59:11;;;;;;;14.27;4.43;;;;;;;;;;5070785;28;20017;-73
2022/03/15 12:01:47;;;;;;;11.95;4.05;;;;;;;;;;5070269;28;20032;-73
2022/03/15 12:04:15;;;;;;;17.92;4.90;;;;;;;;;;5070791;28;20044;-73
2022/03/15 12:07:00;;;;;;;14.77;5.13;;;;;;;;;;5070642;28;20481;-73
2022/03/15 12:09:30;;;;;;;19.10;4.88;;;;;;;;;;5055173;28;20039;-72
2022/03/15 12:12:06;;;;;;;22.50;5.70;;;;;;;;;;5069301;28;20018;-73
2022/03/15 12:14:41;;;;;;;17.10;5.90;;;;;;;;;;5070380;28;20040;-73
2022/03/15 12:17:10;;;;;;;15.63;5.50;;;;;;;;;;5070246;28;20025;-73
2022/03/15 12:19:47;;;;;;;17.52;4.70;;;;;;;;;;5070479;28;20024;-73
2022/03/15 12:22:43;;;;;;;17.27;5.57;;;;;;;;;;5054495;28;20029;-73
2022/03/15 12:25:14;;;;;;;15.27;5.05;;;;;;;;;;5068395;28;20043;-73
2022/03/15 12:27:40;;;;;;;16.83;6.60;;;;;;;;;;5070328;28;20039;-73
2022/03/15 12:30:08;;;;;;;13.27;5.43;;;;;;;;;;5069860;28;20519;-73
2022/03/15 12:32:34;;;;;;;18.58;5.80;;;;;;;;;;5070790;28;20017;-73
2022/03/15 12:35:01;;;;;;;19.95;5.75;;;;;;;;;;5069315;28;20040;-72
2022/03/15 12:37:34;;;;;;;17.30;5.93;;;;;;;;;;5069548;28;20032;-73
2022/03/15 12:40:02;;;;;;;12.25;5.35;;;;;;;;;;5053057;28;20020;-73
2022/03/15 12:42:28;;;;;;;15.13;5.30;;;;;;;;;;5070719;28;20400;-73
2022/03/15 12:45:03;;;;;;;12.73;5.38;;;;;;;;;;5073834;28;20037;-73
2022/03/15 12:47:31;;;;;;;21.30;5.68;;;;;;;;;;5072074;28;20040;-73
2022/03/15 12:50:26;;;;;;;15.27;4.93;;;;;;;;;;5071086;28;20044;-73
2022/03/15 12:52:57;;;;;;;17.30;6.18;;;;;;;;;;5055494;28;20560;-73
2022/03/15 12:55:27;;;;;;;10.73;4.88;;;;;;;;;;5072954;28;20172;-73
2022/03/15 12:57:56;;;;;;;12.95;5.63;;;;;;;;;;5056320;28;20021;-73
2022/03/15 13:00:24;;;;;;;10.18;4.63;;;;;;;;;;5072613;28;20028;-73
2022/03/15 13:02:55;;;;;;;12.15;5.13;;;;;;;;;;5073901;28;20032;-73
2022/03/15 13:05:22;;;;;;;18.52;5.90;;;;;;;;;;5072536;28;20031;-73
2022/03/15 13:07:52;;;;;;;15.55;5.35;;;;;;;;;;5073364;28;20042;-73
2022/03/15 13:10:46;;;;;;;9.30;3.83;;;;;;;;;;5054475;28;20040;-73
2022/03/15 13:13:18;;;;;;;12.25;4.50;;;;;;;;;;5060097;28;20279;-72
2022/03/15 13:15:49;;;;;;;11.80;4.60;;;;;;;;;;5071291;28;20032;-73
2022/03/15 13:18:23;;;;;;;11.27;3.55;;;;;;;;;;5071048;28;20021;-73
2022/03/15 13:20:50;;;;;;;13.10;3.78;;;;;;;;;;5067636;28;20029;-73
2022/03/15 13:23:17;;;;;;;6.70;3.40;;;;;;;;;;5071028;28;20505;-73
2022/03/15 13:25:44;;;;;;;9.13;4.10;;;;;;;;;;5073244;28;20028;-73
2022/03/15 13:28:17;;;;;;;8.70;3.75;;;;;;;;;;5072376;28;20393;-73
2022/03/15 13:30:44;;;;;;;10.85;4.35;;;;;;;;;;5070704;28;20033;-73
2022/03/15 13:33:15;;;;;;;7.47;3.80;;;;;;;;;;5072805;28;20027;-73
2022/03/15 13:35:42;;;;;;;11.40;4.13;;;;;;;;;;5071663;28;20033;-73
2022/03/15 13:38:18;;;;;;;14.93;5.28;;;;;;;;;;5071975;28;20400;-73
2022/03/15 13:40:45;;;;;;;8.13;4.57;;;;;;;;;;5071043;28;20028;-73
2022/03/15 13:43:14;;;;;;;13.40;4.40;;;;;;;;;;5071726;28;20392;-73
2022/03/15 13:45:43;;;;;;;11.93;4.70;;;;;;;;;;5073214;28;20017;-73
2022/03/15 13:48:10;;;;;;;8.77;4.32;;;;;;;;;;5071775;28;20182;-73
2022/03/15 13:50:38;;;;;;;11.77;4.88;;;;;;;;;;5072080;28;20036;-73
2022/03/15 13:53:17;;;;;;;12.50;4.15;;;;;;;;;;5072056;28;20023;-73
2022/03/15 13:55:44;;;;;;;10.93;4.90;;;;;;;;;;5071959;28;20035;-73
2022/03/15 13:58:10;;;;;;;12.18;5.03;;;;;;;;;;5071409;28;20381;-73
2022/03/15 14:00:37;;;;;;;9.25;4.40;;;;;;;;;;5072655;28;20025;-73
2022/03/15 14:03:08;;;;;;;15.93;4.68;;;;;;;;;;5071858;28;20025;-73
2022/03/15 14:05:34;;;;;;;12.15;4.75;;;;;;;;;;5071921;28;20370;-73
2022/03/15 14:08:05;;;;;;;13.30;5.30;;;;;;;;;;5071974;28;20028;-73
2022/03/15 14:10:31;;;;;;;20.33;5.97;;;;;;;;;;5056760;28;20417;-73
2022/03/15 14:12:58;;;;;;;11.65;4.90;;;;;;;;;;5071230;28;20024;-73
2022/03/15 14:15:29;;;;;;;9.23;4.50;;;;;;;;;;5072070;28;20093;-73
2022/03/15 14:17:56;;;;;;;;;;;;;;;;;;5069447;28;20021;-73
2022/03/15 14:20:32;;;;;;;10.82;4.55;;;;;;;;;;5072340;28;20396;-73
2022/03/15 14:22:59;;;;;;;13.40;4.75;;;;;;;;;;5071418;28;20042;-73
2022/03/15 14:25:26;;;;;;;12.55;5.10;;;;;;;;;;5071697;28;20029;-73
2022/03/15 14:28:00;;;;;;;6.97;3.92;;;;;;;;;;5071960;28;20070;-73
2022/03/15 14:30:27;;;;;;;15.45;5.43;;;;;;;;;;5068450;28;20439;-73
2022/03/15 14:32:55;;;;;;;12.68;5.55;;;;;;;;;;5071040;28;20020;-73
2022/03/15 14:35:26;;;;;;;12.00;4.80;;;;;;;;;;5070952;28;20030;-73
2022/03/15 14:38:03;;;;;;;14.93;4.47;;;;;;;;;;5067487;28;20036;-73